Aviation Digital Data Service (ADDS)

Output produced by METARs form (1427 UTC 10 July 2020)
found at http://www.aviationweather.gov/metar/data/
 
KDAB 101413Z 27008KT 10SM SCT016 SCT024 BKN037 BKN200 29/26 A2995 RMK AO2 T02940261
KDAB 101353Z 25008KT 10SM BKN019 BKN070 28/27 A2995 RMK AO2 SLP141 T02830267
KDAB 101127Z 1012/1112 00000KT P6SM SCT015 BKN050 BKN080 
     FM101400 27007KT P6SM VCSH SCT030 SCT060 BKN300 
     FM101600 30008KT P6SM VCTS SCT035CB BKN060 
     FM102100 09007KT P6SM VCSH SCT040 SCT100 SCT250 
     FM110400 24004KT P6SM FEW040 SCT250